Arcadia, Ohio
Current Conditions -  °F | °C
As of 3:29 AM on Monday 26 Jan 2015 (Local Time) from KFDY Reporting Station
Light Snow Light Snow  
Wind Chill:   Ceiling: 3300
Heat Index: 17°   Visibility: 3mi
Dew Point: 12°   Wind: 16mph
Humidity: 81%   Direction: 10°N
Pressure: 29.86"   Gusts: NA
Location:  41.11°N, 83.52°W
Report Text: KFDY 260829Z AUTO 01014KT 3SM -SN OVC033 M08/M11 A2986 RMK AO2 P0000 T10831111
Loading
Personal Weather Stations






























Interactive Weather Map New forecast layout! Learn more

10-Day Weather Forecast

Advertisements
Track Severe Weather on mobile